Time;durP1;ratioP1;P1;durP2;ratioP2;P2;SDS_P1;SDS_P2;PMS_P1;PMS_P2;Temp;Humidity;BMP_temperature;BMP_pressure;BME280_temperature;BME280_humidity;BME280_pressure;Samples;Min_cycle;Max_cycle;Signal;HPM_P1;HPM_P2
2022/04/01 00:01:12;;;;;;;1.70;1.60;;;;;;;;;;5022706;28;20277;-68
2022/04/01 00:03:59;;;;;;;1.40;1.40;;;;;;;;;;5022169;28;20211;-68
2022/04/01 00:06:46;;;;;;;1.10;1.10;;;;;;;;;;5023322;28;20240;-68
2022/04/01 00:09:34;;;;;;;1.33;1.23;;;;;;;;;;5020837;28;20217;-69
2022/04/01 00:12:21;;;;;;;1.20;1.20;;;;;;;;;;5025296;28;20295;-69
2022/04/01 00:15:12;;;;;;;1.53;1.43;;;;;;;;;;5025526;28;20228;-68
2022/04/01 00:18:00;;;;;;;1.30;1.27;;;;;;;;;;5026029;28;20206;-68
2022/04/01 00:20:47;;;;;;;1.40;1.33;;;;;;;;;;5027616;28;20248;-68
2022/04/01 00:23:34;;;;;;;1.27;1.27;;;;;;;;;;5023692;28;20308;-68
2022/04/01 00:26:22;;;;;;;1.10;1.10;;;;;;;;;;5028146;28;20209;-68
2022/04/01 00:29:15;;;;;;;1.50;1.40;;;;;;;;;;5025225;28;20208;-68
2022/04/01 00:32:03;;;;;;;1.20;1.20;;;;;;;;;;5026848;28;20313;-69
2022/04/01 00:34:51;;;;;;;1.20;1.17;;;;;;;;;;5024944;28;20221;-68
2022/04/01 00:37:38;;;;;;;1.53;1.23;;;;;;;;;;5022561;28;20214;-68
2022/04/01 00:40:25;;;;;;;1.60;1.50;;;;;;;;;;5023759;28;20226;-68
2022/04/01 00:43:13;;;;;;;1.20;1.10;;;;;;;;;;5018953;28;20256;-68
2022/04/01 00:46:01;;;;;;;1.60;1.20;;;;;;;;;;5024048;28;20284;-68
2022/04/01 00:48:48;;;;;;;1.10;1.03;;;;;;;;;;5019739;28;20210;-68
2022/04/01 00:51:35;;;;;;;1.50;1.40;;;;;;;;;;5024552;28;20626;-69
2022/04/01 00:54:23;;;;;;;1.47;1.47;;;;;;;;;;5023204;28;20242;-69
2022/04/01 00:57:13;;;;;;;1.07;1.07;;;;;;;;;;5022012;28;20297;-69
2022/04/01 01:00:02;;;;;;;1.20;1.20;;;;;;;;;;5023840;28;20312;-68
2022/04/01 01:02:49;;;;;;;1.17;1.17;;;;;;;;;;5022207;28;20288;-68
2022/04/01 01:05:37;;;;;;;2.20;1.10;;;;;;;;;;5023884;28;20236;-68
2022/04/01 01:08:24;;;;;;;1.53;1.23;;;;;;;;;;5024702;28;20243;-68
2022/04/01 01:11:14;;;;;;;1.17;1.10;;;;;;;;;;5019410;28;20736;-68
2022/04/01 01:14:02;;;;;;;1.07;1.07;;;;;;;;;;5021957;28;20214;-68
2022/04/01 01:16:50;;;;;;;1.30;1.30;;;;;;;;;;5024255;28;20276;-68
2022/04/01 01:19:37;;;;;;;1.17;1.07;;;;;;;;;;5018438;28;20222;-68
2022/04/01 01:22:24;;;;;;;1.20;1.20;;;;;;;;;;5021582;28;20287;-68
2022/04/01 01:25:13;;;;;;;1.13;1.13;;;;;;;;;;5024799;28;20250;-69
2022/04/01 01:28:00;;;;;;;1.30;1.20;;;;;;;;;;5022352;28;20210;-68
2022/04/01 01:30:47;;;;;;;1.70;1.60;;;;;;;;;;5025038;28;20208;-69
2022/04/01 01:33:34;;;;;;;1.40;1.40;;;;;;;;;;5023871;28;20205;-68
2022/04/01 01:36:21;;;;;;;1.00;1.00;;;;;;;;;;5025402;28;20340;-68
2022/04/01 01:39:09;;;;;;;1.30;1.20;;;;;;;;;;5019195;28;20209;-68
2022/04/01 01:41:57;;;;;;;1.30;1.30;;;;;;;;;;5022595;28;20237;-68
2022/04/01 01:44:45;;;;;;;1.20;1.20;;;;;;;;;;5025041;28;20690;-68
2022/04/01 01:47:34;;;;;;;1.00;1.00;;;;;;;;;;5021537;28;20264;-68
2022/04/01 01:56:30;;;;;;;1.20;1.20;;;;;;;;;;5018622;28;20212;-68
2022/04/01 01:59:18;;;;;;;1.30;1.10;;;;;;;;;;5022166;28;20205;-68
2022/04/01 02:02:08;;;;;;;1.20;1.20;;;;;;;;;;5021456;28;20240;-68
2022/04/01 02:04:55;;;;;;;1.10;1.10;;;;;;;;;;5025529;28;20209;-68
2022/04/01 02:07:44;;;;;;;1.20;1.20;;;;;;;;;;5022036;28;20646;-68
2022/04/01 02:10:31;;;;;;;1.30;1.20;;;;;;;;;;5022278;28;20201;-67
2022/04/01 02:13:18;;;;;;;1.07;1.00;;;;;;;;;;5023752;28;20217;-68
2022/04/01 02:16:07;;;;;;;1.17;1.17;;;;;;;;;;5026660;28;20206;-68
2022/04/01 02:18:54;;;;;;;1.27;1.20;;;;;;;;;;5022403;28;20213;-68
2022/04/01 02:21:41;;;;;;;1.20;1.20;;;;;;;;;;5021753;28;20280;-67
2022/04/01 02:24:28;;;;;;;1.57;1.47;;;;;;;;;;5021987;28;20233;-68
2022/04/01 02:27:15;;;;;;;1.47;1.10;;;;;;;;;;5020430;28;20217;-68
2022/04/01 02:30:10;;;;;;;1.60;1.50;;;;;;;;;;5022612;28;20205;-68
2022/04/01 02:32:58;;;;;;;1.10;1.10;;;;;;;;;;5020070;28;20209;-67
2022/04/01 02:35:45;;;;;;;1.50;1.40;;;;;;;;;;5020070;28;20277;-68
2022/04/01 02:38:32;;;;;;;1.50;1.40;;;;;;;;;;5025059;28;20209;-68
2022/04/01 02:41:19;;;;;;;1.57;1.47;;;;;;;;;;5020812;28;20701;-68
2022/04/01 02:44:09;;;;;;;1.60;1.50;;;;;;;;;;5023839;28;20294;-68
2022/04/01 02:46:56;;;;;;;1.90;1.80;;;;;;;;;;5026763;28;20236;-68
2022/04/01 02:49:44;;;;;;;1.90;1.80;;;;;;;;;;5019551;28;20209;-68
2022/04/01 02:52:31;;;;;;;1.73;1.63;;;;;;;;;;5020459;28;20687;-69
2022/04/01 02:55:18;;;;;;;2.60;2.40;;;;;;;;;;5023089;28;20208;-68
2022/04/01 02:58:06;;;;;;;3.00;2.80;;;;;;;;;;5022380;28;20230;-68
2022/04/01 03:00:53;;;;;;;2.73;2.53;;;;;;;;;;5020242;28;20228;-68
2022/04/01 03:03:41;;;;;;;4.40;2.90;;;;;;;;;;5021609;28;20693;-68
2022/04/01 03:06:29;;;;;;;2.70;2.50;;;;;;;;;;5018319;28;20215;-67
2022/04/01 03:09:16;;;;;;;3.17;2.87;;;;;;;;;;5017992;28;20311;-68
2022/04/01 03:12:07;;;;;;;3.20;3.00;;;;;;;;;;5018012;28;20205;-68
2022/04/01 03:14:54;;;;;;;2.97;2.77;;;;;;;;;;5026132;28;20224;-68
2022/04/01 03:17:41;;;;;;;3.10;2.87;;;;;;;;;;5025368;28;20205;-68
2022/04/01 03:20:29;;;;;;;3.20;2.90;;;;;;;;;;5024912;28;20233;-68
2022/04/01 03:23:17;;;;;;;2.97;2.77;;;;;;;;;;5025863;28;20220;-68
2022/04/01 03:26:04;;;;;;;2.90;2.70;;;;;;;;;;5024750;28;20741;-68
2022/04/01 03:28:51;;;;;;;2.70;2.50;;;;;;;;;;5023396;28;20296;-69
2022/04/01 03:31:40;;;;;;;2.80;2.60;;;;;;;;;;5026098;28;20203;-67
2022/04/01 03:34:27;;;;;;;2.50;2.30;;;;;;;;;;5023670;28;20210;-68
2022/04/01 03:37:14;;;;;;;2.77;2.57;;;;;;;;;;5020080;28;20293;-68
2022/04/01 03:40:04;;;;;;;2.33;2.23;;;;;;;;;;5023520;28;20215;-68
2022/04/01 03:42:52;;;;;;;2.07;1.97;;;;;;;;;;5026602;28;20220;-68
2022/04/01 03:45:40;;;;;;;2.37;2.20;;;;;;;;;;5024645;28;20207;-68
2022/04/01 03:48:31;;;;;;;1.93;1.83;;;;;;;;;;5024239;28;20296;-68
2022/04/01 03:51:20;;;;;;;2.10;2.00;;;;;;;;;;5028980;28;20227;-68
2022/04/01 03:54:07;;;;;;;2.13;1.93;;;;;;;;;;5021966;28;20224;-68
2022/04/01 03:56:59;;;;;;;1.70;1.60;;;;;;;;;;5024403;28;20340;-68
2022/04/01 03:59:51;;;;;;;2.10;2.00;;;;;;;;;;5024263;28;20205;-68
2022/04/01 04:02:39;;;;;;;1.90;1.80;;;;;;;;;;5024259;28;20240;-68
2022/04/01 04:05:27;;;;;;;1.77;1.67;;;;;;;;;;5022777;28;20288;-68
2022/04/01 04:08:18;;;;;;;1.70;1.60;;;;;;;;;;5025318;28;20213;-69
2022/04/01 04:11:05;;;;;;;1.77;1.67;;;;;;;;;;5023749;28;20234;-68
2022/04/01 04:13:55;;;;;;;1.87;1.67;;;;;;;;;;5020462;28;20299;-68
2022/04/01 04:16:47;;;;;;;1.97;1.87;;;;;;;;;;5026372;28;20206;-69
2022/04/01 04:19:43;;;;;;;1.37;1.37;;;;;;;;;;5026483;28;20209;-68
2022/04/01 04:22:35;;;;;;;1.40;1.30;;;;;;;;;;5028978;28;20318;-68
2022/04/01 04:25:23;;;;;;;1.43;1.40;;;;;;;;;;5021443;28;20259;-68
2022/04/01 04:28:12;;;;;;;1.40;1.30;;;;;;;;;;5024485;28;20214;-68
2022/04/01 04:31:07;;;;;;;1.40;1.40;;;;;;;;;;5025845;28;20209;-68
2022/04/01 04:33:57;;;;;;;1.47;1.37;;;;;;;;;;5026710;28;20205;-68
2022/04/01 04:36:49;;;;;;;1.50;1.40;;;;;;;;;;5023704;28;20208;-68
2022/04/01 04:39:38;;;;;;;1.00;1.00;;;;;;;;;;5024935;28;20216;-68
2022/04/01 04:42:27;;;;;;;1.27;1.27;;;;;;;;;;5021071;28;20337;-68
2022/04/01 04:45:16;;;;;;;1.63;1.57;;;;;;;;;;5026388;28;20274;-68
2022/04/01 04:48:05;;;;;;;1.70;1.60;;;;;;;;;;5022037;28;20278;-68
2022/04/01 04:50:53;;;;;;;1.70;1.60;;;;;;;;;;5025464;28;20278;-68
2022/04/01 04:53:40;;;;;;;1.80;1.70;;;;;;;;;;5022867;28;20296;-68
2022/04/01 04:56:28;;;;;;;1.63;1.53;;;;;;;;;;5023184;28;20243;-68
2022/04/01 04:59:17;;;;;;;1.37;1.37;;;;;;;;;;5026935;28;20226;-68
2022/04/01 05:02:06;;;;;;;1.40;1.40;;;;;;;;;;5021747;28;20233;-68
2022/04/01 05:05:04;;;;;;;1.60;1.50;;;;;;;;;;5022671;28;20287;-69
2022/04/01 05:08:03;;;;;;;1.40;1.40;;;;;;;;;;5022223;28;20216;-68
2022/04/01 05:10:54;;;;;;;1.90;1.33;;;;;;;;;;5025541;28;20338;-68
2022/04/01 05:13:50;;;;;;;1.70;1.60;;;;;;;;;;5020245;28;20267;-68
2022/04/01 05:16:48;;;;;;;1.93;1.83;;;;;;;;;;5025410;28;20205;-68
2022/04/01 05:19:37;;;;;;;1.80;1.70;;;;;;;;;;5023198;28;20212;-68
2022/04/01 05:22:34;;;;;;;2.40;2.30;;;;;;;;;;5022412;28;20225;-68
2022/04/01 05:25:24;;;;;;;3.10;2.37;;;;;;;;;;5024044;28;20212;-67
2022/04/01 05:28:21;;;;;;;2.47;2.37;;;;;;;;;;5021630;28;20237;-67
2022/04/01 05:31:14;;;;;;;2.73;2.53;;;;;;;;;;5022767;28;20221;-68
2022/04/01 05:34:08;;;;;;;2.73;2.53;;;;;;;;;;5023159;28;20259;-69
2022/04/01 05:36:57;;;;;;;2.90;2.53;;;;;;;;;;5024304;28;20296;-68
2022/04/01 05:39:47;;;;;;;2.70;2.50;;;;;;;;;;5023323;28;20219;-68
2022/04/01 05:42:34;;;;;;;2.57;2.37;;;;;;;;;;5026439;28;20235;-68
2022/04/01 05:45:21;;;;;;;2.43;2.30;;;;;;;;;;5019587;28;20201;-67
2022/04/01 05:48:11;;;;;;;2.93;2.50;;;;;;;;;;5019376;28;20319;-67
2022/04/01 05:50:58;;;;;;;3.60;2.70;;;;;;;;;;5019711;28;20212;-67
2022/04/01 05:53:47;;;;;;;2.93;2.73;;;;;;;;;;5022725;28;20225;-67
2022/04/01 05:56:37;;;;;;;2.77;2.17;;;;;;;;;;5024910;28;20221;-67
2022/04/01 05:59:25;;;;;;;2.23;2.13;;;;;;;;;;5021373;28;20215;-67
2022/04/01 06:02:27;;;;;;;2.30;2.20;;;;;;;;;;5018196;28;20235;-67
2022/04/01 06:05:18;;;;;;;2.30;2.20;;;;;;;;;;5014744;28;20210;-67
2022/04/01 06:08:16;;;;;;;2.10;2.00;;;;;;;;;;5024144;28;20222;-68
2022/04/01 06:11:10;;;;;;;2.47;2.37;;;;;;;;;;5019806;28;20678;-67
2022/04/01 06:14:03;;;;;;;2.40;2.20;;;;;;;;;;5021461;28;20690;-68
2022/04/01 06:16:58;;;;;;;2.80;2.60;;;;;;;;;;5022917;28;20578;-69
2022/04/01 06:19:46;;;;;;;2.90;2.60;;;;;;;;;;5020317;28;20336;-68
2022/04/01 06:22:36;;;;;;;3.23;2.60;;;;;;;;;;5021442;28;20302;-68
2022/04/01 06:25:29;;;;;;;2.43;2.23;;;;;;;;;;5022869;28;20215;-68
2022/04/01 06:28:24;;;;;;;2.57;2.37;;;;;;;;;;5022983;28;20277;-67
2022/04/01 06:31:13;;;;;;;2.77;2.57;;;;;;;;;;5023424;28;20212;-67
2022/04/01 06:34:04;;;;;;;2.27;2.17;;;;;;;;;;5017927;28;20239;-68
2022/04/01 06:36:54;;;;;;;2.77;2.30;;;;;;;;;;5026533;28;20205;-67
2022/04/01 06:39:46;;;;;;;2.70;2.60;;;;;;;;;;5020389;28;20237;-66
2022/04/01 06:42:37;;;;;;;2.43;2.23;;;;;;;;;;5020796;28;20295;-66
2022/04/01 06:45:24;;;;;;;3.00;2.17;;;;;;;;;;5020911;28;20686;-66
2022/04/01 06:48:12;;;;;;;2.45;2.25;;;;;;;;;;5025237;28;20242;-66
2022/04/01 06:50:59;;;;;;;2.38;2.28;;;;;;;;;;5023526;28;20232;-66
2022/04/01 06:53:46;;;;;;;2.22;2.13;;;;;;;;;;5023232;28;20224;-65
2022/04/01 06:56:33;;;;;;;2.28;2.17;;;;;;;;;;5027524;28;20293;-66
2022/04/01 06:59:20;;;;;;;2.25;2.08;;;;;;;;;;5021241;28;20191;-66
2022/04/01 07:02:07;;;;;;;2.15;2.05;;;;;;;;;;5023903;28;20293;-64
2022/04/01 07:04:56;;;;;;;2.60;2.00;;;;;;;;;;5019226;28;20214;-65
2022/04/01 07:07:43;;;;;;;2.20;2.00;;;;;;;;;;5020923;28;20245;-65
2022/04/01 07:10:30;;;;;;;1.90;1.80;;;;;;;;;;5022127;28;20215;-64
2022/04/01 07:13:17;;;;;;;2.03;1.90;;;;;;;;;;5023011;28;20251;-65
2022/04/01 07:16:06;;;;;;;2.28;1.80;;;;;;;;;;5024183;28;20211;-65
2022/04/01 07:18:53;;;;;;;1.90;1.80;;;;;;;;;;5023157;28;20222;-66
2022/04/01 07:21:41;;;;;;;1.70;1.60;;;;;;;;;;5023066;28;20208;-64
2022/04/01 07:24:30;;;;;;;1.95;1.85;;;;;;;;;;5020204;28;20216;-65
2022/04/01 07:27:18;;;;;;;1.70;1.60;;;;;;;;;;5026375;28;20704;-64
2022/04/01 07:30:08;;;;;;;1.70;1.60;;;;;;;;;;5021923;28;20676;-65
2022/04/01 07:32:58;;;;;;;1.52;1.42;;;;;;;;;;5023615;28;20231;-65
2022/04/01 07:35:47;;;;;;;1.95;1.30;;;;;;;;;;5026553;28;20207;-65
2022/04/01 07:38:36;;;;;;;1.40;1.30;;;;;;;;;;5025871;28;20213;-65
2022/04/01 07:41:23;;;;;;;2.03;1.40;;;;;;;;;;5022963;28;20610;-66
2022/04/01 07:44:10;;;;;;;1.38;1.38;;;;;;;;;;5027907;28;20212;-64
2022/04/01 07:46:57;;;;;;;1.30;1.20;;;;;;;;;;5022500;28;20609;-65
2022/04/01 07:49:45;;;;;;;1.55;1.20;;;;;;;;;;5023092;28;20239;-67
2022/04/01 07:52:33;;;;;;;1.33;1.23;;;;;;;;;;5023387;28;20791;-65
2022/04/01 07:55:22;;;;;;;1.92;1.38;;;;;;;;;;5021375;28;20263;-64
2022/04/01 07:58:09;;;;;;;1.20;1.20;;;;;;;;;;5024392;28;20229;-65
2022/04/01 08:00:56;;;;;;;1.35;1.33;;;;;;;;;;5024467;28;20594;-65
2022/04/01 08:03:45;;;;;;;1.20;1.10;;;;;;;;;;5023470;28;20438;-65
2022/04/01 08:06:32;;;;;;;1.25;1.20;;;;;;;;;;5022723;28;20665;-65
2022/04/01 08:09:19;;;;;;;1.38;1.27;;;;;;;;;;5017573;28;20270;-65
2022/04/01 08:12:09;;;;;;;1.00;1.00;;;;;;;;;;5022646;28;20213;-64
2022/04/01 08:14:56;;;;;;;1.30;1.20;;;;;;;;;;5024300;28;20221;-64
2022/04/01 08:17:43;;;;;;;1.98;1.30;;;;;;;;;;5023292;28;20201;-65
2022/04/01 08:20:30;;;;;;;2.05;1.05;;;;;;;;;;5021129;28;20216;-64
2022/04/01 08:23:18;;;;;;;1.23;1.20;;;;;;;;;;5022326;28;20232;-66
2022/04/01 08:26:05;;;;;;;1.13;1.13;;;;;;;;;;5022660;28;20216;-64
2022/04/01 08:28:53;;;;;;;1.20;1.20;;;;;;;;;;5022877;28;20208;-65
2022/04/01 08:31:40;;;;;;;2.10;1.17;;;;;;;;;;5025146;28;20204;-67
2022/04/01 08:34:27;;;;;;;1.20;1.17;;;;;;;;;;5025049;28;20687;-67
2022/04/01 08:37:14;;;;;;;1.33;1.10;;;;;;;;;;5025071;28;20247;-66
2022/04/01 08:40:01;;;;;;;1.13;1.02;;;;;;;;;;5028101;28;20212;-66
2022/04/01 08:42:49;;;;;;;1.20;1.10;;;;;;;;;;5019063;28;20243;-67
2022/04/01 08:45:38;;;;;;;0.95;0.95;;;;;;;;;;5028229;28;20241;-67
2022/04/01 08:48:26;;;;;;;0.80;0.70;;;;;;;;;;5024264;28;20209;-66
2022/04/01 08:51:14;;;;;;;0.95;0.90;;;;;;;;;;5019317;28;20260;-66
2022/04/01 08:54:02;;;;;;;0.80;0.80;;;;;;;;;;5021282;28;20654;-66
2022/04/01 08:56:49;;;;;;;0.70;0.70;;;;;;;;;;5022549;28;20224;-66
2022/04/01 08:59:37;;;;;;;0.80;0.80;;;;;;;;;;5023827;28;20306;-67
2022/04/01 09:02:26;;;;;;;0.63;0.50;;;;;;;;;;5023252;28;20316;-67
2022/04/01 09:05:13;;;;;;;0.80;0.80;;;;;;;;;;5017739;28;20211;-66
2022/04/01 09:08:01;;;;;;;0.87;0.57;;;;;;;;;;5022944;28;20218;-66
2022/04/01 09:10:58;;;;;;;1.40;0.87;;;;;;;;;;5019798;28;20220;-67
2022/04/01 09:13:50;;;;;;;0.80;0.80;;;;;;;;;;5019545;28;20235;-67
2022/04/01 09:16:41;;;;;;;0.70;0.70;;;;;;;;;;5023623;28;20493;-66
2022/04/01 09:19:33;;;;;;;0.80;0.80;;;;;;;;;;5022175;28;20215;-67
2022/04/01 09:22:22;;;;;;;0.97;0.63;;;;;;;;;;5021127;28;20285;-66
2022/04/01 09:25:11;;;;;;;0.53;0.53;;;;;;;;;;5021726;28;20233;-66
2022/04/01 09:27:58;;;;;;;1.13;0.60;;;;;;;;;;5022673;28;20624;-66
2022/04/01 09:30:45;;;;;;;0.77;0.77;;;;;;;;;;5023720;28;20309;-67
2022/04/01 09:33:49;;;;;;;0.83;0.60;;;;;;;;;;5024103;28;20293;-66
2022/04/01 09:36:39;;;;;;;0.70;0.63;;;;;;;;;;5021350;28;20212;-66
2022/04/01 09:39:26;;;;;;;0.80;0.80;;;;;;;;;;5020529;28;20217;-67
2022/04/01 09:42:13;;;;;;;0.77;0.70;;;;;;;;;;5022767;28;20233;-67
2022/04/01 09:45:01;;;;;;;0.50;0.50;;;;;;;;;;5026920;28;20202;-67
2022/04/01 09:47:58;;;;;;;0.67;0.67;;;;;;;;;;5024581;28;20741;-67
2022/04/01 09:50:56;;;;;;;0.60;0.60;;;;;;;;;;5024549;28;20205;-67
2022/04/01 09:53:51;;;;;;;0.50;0.50;;;;;;;;;;5022154;28;20220;-66
2022/04/01 09:56:40;;;;;;;0.50;0.50;;;;;;;;;;5021994;28;20214;-67
2022/04/01 09:59:31;;;;;;;0.40;0.40;;;;;;;;;;5017985;28;20337;-66
2022/04/01 10:02:18;;;;;;;0.50;0.50;;;;;;;;;;5017521;28;20577;-67
2022/04/01 10:05:07;;;;;;;0.40;0.40;;;;;;;;;;5018557;28;20320;-67
2022/04/01 10:07:55;;;;;;;0.40;0.40;;;;;;;;;;5020029;28;20294;-66
2022/04/01 10:10:44;;;;;;;0.60;0.60;;;;;;;;;;5018980;28;20240;-67
2022/04/01 10:13:33;;;;;;;1.07;0.50;;;;;;;;;;5021073;28;20682;-67
2022/04/01 10:16:22;;;;;;;0.63;0.63;;;;;;;;;;5025178;28;20207;-66
2022/04/01 10:19:12;;;;;;;0.50;0.50;;;;;;;;;;5021343;28;20283;-67
2022/04/01 10:22:01;;;;;;;0.67;0.67;;;;;;;;;;5021307;28;20208;-66
2022/04/01 10:24:53;;;;;;;0.50;0.50;;;;;;;;;;5021420;28;20220;-67
2022/04/01 10:27:44;;;;;;;0.60;0.60;;;;;;;;;;5015547;28;20223;-66
2022/04/01 10:30:32;;;;;;;0.40;0.40;;;;;;;;;;5020467;28;20200;-67
2022/04/01 10:33:23;;;;;;;0.47;0.47;;;;;;;;;;5018254;28;20361;-66
2022/04/01 10:36:17;;;;;;;0.70;0.40;;;;;;;;;;5018827;28;20211;-66
2022/04/01 10:39:06;;;;;;;0.60;0.60;;;;;;;;;;5013839;28;20296;-66
2022/04/01 10:42:06;;;;;;;0.87;0.60;;;;;;;;;;5024540;28;20834;-66
2022/04/01 10:44:57;;;;;;;2.33;0.70;;;;;;;;;;5018424;28;20220;-66
2022/04/01 10:54:43;;;;;;;0.83;0.60;;;;;;;;;;5018948;28;20747;-68
2022/04/01 10:57:32;;;;;;;1.60;0.70;;;;;;;;;;5020821;28;20243;-67
2022/04/01 11:00:20;;;;;;;1.03;0.50;;;;;;;;;;5023966;28;20223;-66
2022/04/01 11:03:22;;;;;;;0.87;0.70;;;;;;;;;;5020052;28;20236;-67
2022/04/01 11:06:27;;;;;;;0.43;0.43;;;;;;;;;;5022128;28;20258;-66
2022/04/01 11:09:33;;;;;;;0.43;0.43;;;;;;;;;;5019203;28;20221;-66
2022/04/01 11:12:27;;;;;;;1.07;0.60;;;;;;;;;;5019247;28;20213;-66
2022/04/01 11:15:25;;;;;;;0.67;0.57;;;;;;;;;;5021715;28;20213;-67
2022/04/01 11:18:14;;;;;;;1.80;0.50;;;;;;;;;;5018270;28;20205;-67
2022/04/01 11:21:00;;;;;;;1.47;0.73;;;;;;;;;;5021998;28;20209;-66
2022/04/01 11:24:03;;;;;;;2.70;0.77;;;;;;;;;;5017272;28;20282;-66
2022/04/01 11:26:50;;;;;;;1.27;0.60;;;;;;;;;;5026282;28;20232;-66
2022/04/01 11:29:37;;;;;;;1.90;0.63;;;;;;;;;;5020332;28;20209;-66
2022/04/01 11:32:25;;;;;;;1.17;0.50;;;;;;;;;;5019240;28;20271;-66
2022/04/01 11:35:13;;;;;;;0.53;0.53;;;;;;;;;;5024941;28;20578;-66
2022/04/01 11:38:00;;;;;;;0.80;0.50;;;;;;;;;;5026389;28;20218;-66
2022/04/01 11:40:49;;;;;;;2.27;0.50;;;;;;;;;;5022795;28;20296;-68
2022/04/01 11:43:36;;;;;;;0.40;0.40;;;;;;;;;;5026369;28;20228;-66
2022/04/01 11:46:23;;;;;;;2.87;0.50;;;;;;;;;;5020702;28;20374;-67
2022/04/01 11:49:11;;;;;;;0.60;0.60;;;;;;;;;;5025372;28;20208;-66
2022/04/01 11:51:58;;;;;;;0.50;0.50;;;;;;;;;;5021571;28;20206;-66
2022/04/01 11:54:48;;;;;;;0.67;0.60;;;;;;;;;;5024522;28;20215;-67
2022/04/01 11:57:35;;;;;;;0.40;0.40;;;;;;;;;;5024655;28;20222;-68
2022/04/01 12:00:24;;;;;;;0.40;0.40;;;;;;;;;;5024266;28;20203;-66
2022/04/01 12:03:11;;;;;;;0.50;0.40;;;;;;;;;;5023536;28;20231;-66
2022/04/01 12:09:03;;;;;;;0.40;0.40;;;;;;;;;;5017717;28;20692;-66
2022/04/01 12:11:50;;;;;;;0.63;0.40;;;;;;;;;;5026417;28;20386;-67
2022/04/01 12:14:39;;;;;;;0.50;0.50;;;;;;;;;;5023502;28;20736;-66
2022/04/01 12:17:26;;;;;;;0.53;0.50;;;;;;;;;;5029074;28;20712;-67
2022/04/01 12:20:14;;;;;;;0.40;0.40;;;;;;;;;;5022187;28;20224;-66
2022/04/01 12:23:03;;;;;;;0.93;0.30;;;;;;;;;;5021786;28;20244;-66
2022/04/01 12:25:52;;;;;;;0.33;0.33;;;;;;;;;;5024429;28;20286;-66
2022/04/01 12:28:42;;;;;;;0.30;0.30;;;;;;;;;;5024830;28;20236;-66
2022/04/01 12:31:29;;;;;;;0.47;0.47;;;;;;;;;;5030509;28;20303;-67
2022/04/01 12:34:16;;;;;;;0.60;0.40;;;;;;;;;;5024570;28;20321;-67
2022/04/01 12:37:05;;;;;;;0.30;0.20;;;;;;;;;;5019419;28;20205;-67
2022/04/01 12:39:58;;;;;;;0.70;0.47;;;;;;;;;;5020139;28;20213;-67
2022/04/01 12:42:49;;;;;;;0.50;0.50;;;;;;;;;;5021494;28;20216;-68
2022/04/01 12:46:00;;;;;;;0.90;0.90;;;;;;;;;;5021181;28;20273;-67
2022/04/01 12:48:49;;;;;;;0.80;0.80;;;;;;;;;;5025055;28;20613;-67
2022/04/01 12:51:39;;;;;;;0.77;0.70;;;;;;;;;;5014026;28;20248;-67
2022/04/01 12:54:36;;;;;;;0.60;0.60;;;;;;;;;;5019575;28;20676;-67
2022/04/01 12:57:24;;;;;;;0.70;0.70;;;;;;;;;;5023764;28;20242;-67
2022/04/01 13:00:15;;;;;;;0.60;0.60;;;;;;;;;;5019782;28;20230;-67
2022/04/01 13:03:02;;;;;;;0.50;0.50;;;;;;;;;;5021446;28;20214;-66
2022/04/01 13:06:10;;;;;;;0.60;0.60;;;;;;;;;;5018143;28;20234;-67
2022/04/01 13:08:59;;;;;;;0.77;0.77;;;;;;;;;;5019989;28;20215;-68
2022/04/01 13:11:48;;;;;;;0.60;0.60;;;;;;;;;;5024240;28;20304;-66
2022/04/01 13:14:37;;;;;;;0.60;0.60;;;;;;;;;;5023369;28;20206;-67
2022/04/01 13:17:24;;;;;;;0.67;0.67;;;;;;;;;;5024556;28;20284;-67
2022/04/01 13:20:12;;;;;;;1.37;0.70;;;;;;;;;;5020204;28;20206;-67
2022/04/01 13:23:00;;;;;;;0.73;0.73;;;;;;;;;;5021505;28;20238;-67
2022/04/01 13:25:47;;;;;;;0.87;0.60;;;;;;;;;;5021150;28;20221;-67
2022/04/01 13:28:34;;;;;;;0.73;0.70;;;;;;;;;;5021799;28;20213;-66
2022/04/01 13:31:22;;;;;;;0.50;0.50;;;;;;;;;;5021915;28;20208;-67
2022/04/01 13:34:09;;;;;;;0.50;0.50;;;;;;;;;;5022957;28;20210;-67
2022/04/01 13:36:56;;;;;;;0.60;0.60;;;;;;;;;;5025282;28;20620;-67
2022/04/01 13:39:45;;;;;;;0.87;0.60;;;;;;;;;;5021165;28;20791;-67
2022/04/01 13:42:32;;;;;;;0.50;0.50;;;;;;;;;;5018876;28;20228;-66
2022/04/01 13:45:19;;;;;;;0.43;0.43;;;;;;;;;;5023147;28;20231;-66
2022/04/01 13:48:08;;;;;;;0.40;0.40;;;;;;;;;;5015992;28;20276;-67
2022/04/01 13:50:56;;;;;;;0.60;0.60;;;;;;;;;;5023424;28;20665;-66
2022/04/01 13:53:43;;;;;;;0.50;0.50;;;;;;;;;;5016598;28;20312;-67
2022/04/01 13:56:30;;;;;;;0.50;0.50;;;;;;;;;;5020282;28;20283;-67
2022/04/01 13:59:17;;;;;;;0.50;0.50;;;;;;;;;;5019896;28;20583;-67
2022/04/01 14:02:05;;;;;;;0.30;0.30;;;;;;;;;;5023979;28;20692;-66
2022/04/01 14:04:53;;;;;;;0.50;0.50;;;;;;;;;;5020174;28;20225;-66
2022/04/01 14:07:40;;;;;;;0.27;0.27;;;;;;;;;;5022796;28;20205;-66
2022/04/01 14:10:27;;;;;;;0.40;0.40;;;;;;;;;;5023024;28;20254;-66
2022/04/01 14:13:14;;;;;;;0.57;0.57;;;;;;;;;;5018414;28;20238;-67
2022/04/01 14:16:02;;;;;;;0.50;0.50;;;;;;;;;;5027589;28;20334;-66
2022/04/01 14:18:50;;;;;;;0.40;0.40;;;;;;;;;;5018352;28;20318;-67
2022/04/01 14:21:39;;;;;;;0.63;0.60;;;;;;;;;;5022525;28;20213;-67
2022/04/01 14:24:26;;;;;;;0.47;0.47;;;;;;;;;;5020675;28;20735;-67
2022/04/01 14:27:13;;;;;;;1.03;0.50;;;;;;;;;;5023477;28;20287;-66
2022/04/01 14:30:18;;;;;;;0.60;0.60;;;;;;;;;;5021334;28;20362;-66
2022/04/01 14:33:06;;;;;;;0.60;0.60;;;;;;;;;;5025677;28;20207;-67
2022/04/01 14:35:53;;;;;;;0.50;0.50;;;;;;;;;;5024534;28;20205;-66
2022/04/01 14:38:42;;;;;;;0.50;0.50;;;;;;;;;;5018082;28;20275;-67
2022/04/01 14:41:28;;;;;;;0.67;0.67;;;;;;;;;;5020712;28;20691;-67
2022/04/01 14:44:15;;;;;;;0.60;0.60;;;;;;;;;;5022441;28;20375;-66
2022/04/01 14:47:02;;;;;;;0.80;0.80;;;;;;;;;;5018992;28;20330;-66
2022/04/01 14:49:49;;;;;;;1.27;0.80;;;;;;;;;;5019775;28;20625;-67
2022/04/01 14:52:36;;;;;;;0.70;0.70;;;;;;;;;;5019504;28;20367;-66
2022/04/01 14:55:25;;;;;;;0.70;0.70;;;;;;;;;;5018310;28;20278;-66
2022/04/01 14:58:12;;;;;;;0.57;0.57;;;;;;;;;;5021878;28;20209;-67
2022/04/01 15:00:59;;;;;;;0.93;0.93;;;;;;;;;;5014621;28;20593;-67
2022/04/01 15:03:46;;;;;;;0.83;0.83;;;;;;;;;;5020665;28;20312;-68
2022/04/01 15:06:33;;;;;;;0.90;0.90;;;;;;;;;;5019206;28;20235;-67
2022/04/01 15:09:21;;;;;;;0.77;0.77;;;;;;;;;;5022781;28;20199;-66
2022/04/01 15:12:10;;;;;;;0.90;0.90;;;;;;;;;;5022476;28;20197;-67
2022/04/01 15:14:57;;;;;;;0.80;0.80;;;;;;;;;;5023556;28;20294;-66
2022/04/01 15:17:45;;;;;;;1.00;1.00;;;;;;;;;;5019986;28;20216;-68
2022/04/01 15:20:33;;;;;;;1.00;0.90;;;;;;;;;;5024387;28;20637;-67
2022/04/01 15:23:20;;;;;;;0.90;0.90;;;;;;;;;;5023414;28;20212;-67
2022/04/01 15:26:07;;;;;;;0.97;0.97;;;;;;;;;;5023432;28;20314;-68
2022/04/01 15:28:55;;;;;;;0.87;0.87;;;;;;;;;;5021999;28;20212;-67
2022/04/01 15:31:42;;;;;;;0.93;0.93;;;;;;;;;;5026780;28;20224;-67
2022/04/01 15:34:29;;;;;;;1.00;1.00;;;;;;;;;;5027181;28;20231;-66
2022/04/01 15:37:21;;;;;;;1.27;1.27;;;;;;;;;;5026017;28;20354;-67
2022/04/01 15:40:11;;;;;;;1.00;1.00;;;;;;;;;;5025891;28;20215;-67
2022/04/01 15:43:00;;;;;;;0.80;0.80;;;;;;;;;;5021430;28;20329;-67
2022/04/01 15:45:48;;;;;;;1.27;1.27;;;;;;;;;;5024607;28;20232;-67
2022/04/01 15:48:37;;;;;;;0.83;0.83;;;;;;;;;;5023930;28;20326;-67
2022/04/01 15:51:24;;;;;;;1.03;1.03;;;;;;;;;;5022831;28;20270;-67
2022/04/01 15:54:12;;;;;;;0.93;0.93;;;;;;;;;;5026737;28;20214;-66
2022/04/01 15:57:00;;;;;;;0.90;0.90;;;;;;;;;;5019984;28;20591;-67
2022/04/01 15:59:47;;;;;;;0.80;0.80;;;;;;;;;;5021333;28;20214;-67
2022/04/01 16:02:37;;;;;;;0.90;0.90;;;;;;;;;;5020670;28;20212;-66
2022/04/01 16:05:25;;;;;;;0.70;0.70;;;;;;;;;;5022786;28;20314;-67
2022/04/01 16:08:13;;;;;;;1.13;0.83;;;;;;;;;;5023127;28;20210;-66
2022/04/01 16:11:00;;;;;;;0.90;0.90;;;;;;;;;;5024264;28;20213;-66
2022/04/01 16:13:54;;;;;;;0.90;0.90;;;;;;;;;;5022729;28;20233;-66
2022/04/01 16:16:41;;;;;;;0.83;0.83;;;;;;;;;;5026080;28;20613;-66
2022/04/01 16:19:31;;;;;;;0.53;0.53;;;;;;;;;;5023136;28;20293;-66
2022/04/01 16:22:19;;;;;;;0.83;0.83;;;;;;;;;;5025422;28;20209;-67
2022/04/01 16:25:06;;;;;;;0.63;0.63;;;;;;;;;;5023531;28;20232;-66
2022/04/01 16:27:53;;;;;;;0.70;0.70;;;;;;;;;;5025889;28;20297;-68
2022/04/01 16:30:40;;;;;;;0.60;0.60;;;;;;;;;;5020517;28;20248;-68
2022/04/01 16:33:29;;;;;;;0.77;0.77;;;;;;;;;;5023509;28;20250;-67
2022/04/01 16:36:17;;;;;;;0.60;0.60;;;;;;;;;;5019731;28;20224;-67
2022/04/01 16:39:04;;;;;;;0.47;0.47;;;;;;;;;;5021545;28;20260;-67
2022/04/01 16:41:51;;;;;;;0.83;0.67;;;;;;;;;;5021964;28;20218;-67
2022/04/01 16:44:39;;;;;;;0.80;0.80;;;;;;;;;;5023988;28;20235;-67
2022/04/01 16:47:26;;;;;;;0.57;0.57;;;;;;;;;;5006902;28;20325;-66
2022/04/01 16:50:13;;;;;;;0.50;0.50;;;;;;;;;;5003456;28;20711;-67
2022/04/01 16:53:01;;;;;;;0.60;0.60;;;;;;;;;;4998086;28;20671;-67
2022/04/01 16:55:48;;;;;;;0.53;0.43;;;;;;;;;;5003501;28;20282;-67
2022/04/01 16:58:35;;;;;;;0.60;0.60;;;;;;;;;;5000194;28;20215;-68
2022/04/01 17:01:22;;;;;;;1.80;0.67;;;;;;;;;;4999521;28;20213;-67
2022/04/01 17:04:09;;;;;;;0.50;0.50;;;;;;;;;;5000215;28;20313;-67
2022/04/01 17:13:07;;;;;;;0.57;0.57;;;;;;;;;;5004465;28;20210;-70
2022/04/01 17:15:54;;;;;;;0.60;0.60;;;;;;;;;;5001383;28;20243;-67